KCEY/CEY METAR and TAF weather

Enter ICAO airport designator
Station Type Date Time Source
KCEY METAR 2018/01/15 16:15 UTC NOAA

KCEY 151615Z AUTO 23012KT 10SM BKN028 00/M06 A3034 RMK AO1


Station Type Date Time Source
KCEY Decoded METAR 2018/01/15 16:15 UTC NOAA

Station name not available
Jan 15, 2018 - 11:15 AM EST / 2018.01.15 1615 UTC
Wind: from the SW (230 degrees) at 14 MPH (12 KT):0
Visibility: 10 mile(s):0
Sky conditions: mostly cloudy
Temperature: 32 F (0 C)
Windchill: 21 F (-6 C):1
Dew Point: 21 F (-6 C)
Relative Humidity: 63%
Pressure (altimeter): 30.34 in. Hg (1027 hPa)
ob: KCEY 151615Z AUTO 23012KT 10SM BKN028 00/M06 A3034 RMK AO1
cycle: 16

Station Type Date Time Source
KCEY TAF UTC NOAA

Error!


Example: see airport list